Time;durP1;ratioP1;P1;durP2;ratioP2;P2;SDS_P1;SDS_P2;PMS_P1;PMS_P2;Temp;Humidity;BMP_temperature;BMP_pressure;BME280_temperature;BME280_humidity;BME280_pressure;Samples;Min_cycle;Max_cycle;Signal;HPM_P1;HPM_P2
2023/03/12 00:04:50;;;;;;;7.80;4.23;;;;;;;-2.34;100.00;101124.13;10371073;28;20133;-74
2023/03/12 00:09:51;;;;;;;5.30;3.50;;;;;;;-2.37;100.00;101128.00;10390139;28;20041;-75
2023/03/12 00:14:51;;;;;;;10.03;5.30;;;;;;;-2.44;100.00;101130.53;10357406;28;20462;-74
2023/03/12 00:19:52;;;;;;;11.40;4.53;;;;;;;-2.47;100.00;101127.31;10446431;28;20033;-74
2023/03/12 00:24:54;;;;;;;7.73;4.30;;;;;;;-2.53;100.00;101122.56;10437517;28;20061;-74
2023/03/12 00:29:54;;;;;;;11.10;4.70;;;;;;;-2.60;100.00;101116.09;10420559;28;20106;-75
2023/03/12 00:34:55;;;;;;;8.80;4.80;;;;;;;-2.66;100.00;101117.63;10421746;28;20037;-73
2023/03/12 00:39:55;;;;;;;10.67;5.00;;;;;;;-2.77;100.00;101097.22;10439475;28;20032;-74
2023/03/12 00:44:56;;;;;;;7.77;4.97;;;;;;;-2.68;100.00;101114.25;10382352;28;20110;-74
2023/03/12 00:49:56;;;;;;;9.27;5.63;;;;;;;-2.68;100.00;101109.69;10379258;28;20044;-74
2023/03/12 00:54:57;;;;;;;10.33;5.87;;;;;;;-2.76;100.00;101090.78;10396666;28;20052;-74
2023/03/12 00:59:58;;;;;;;12.53;6.03;;;;;;;-2.77;100.00;101099.91;10380720;28;20556;-73
2023/03/12 01:04:58;;;;;;;14.90;7.33;;;;;;;-2.85;100.00;101086.38;10338582;28;20104;-74
2023/03/12 01:09:59;;;;;;;15.43;6.17;;;;;;;-2.85;100.00;101086.38;10354663;28;20038;-74
2023/03/12 01:15:00;;;;;;;14.73;6.60;;;;;;;-2.84;100.00;101082.66;10354236;28;20088;-74
2023/03/12 01:20:00;;;;;;;9.43;6.43;;;;;;;-2.88;100.00;101075.91;10355106;28;20031;-74
2023/03/12 01:25:01;;;;;;;11.37;7.37;;;;;;;-2.89;100.00;101085.84;10354799;28;20065;-74
2023/03/12 01:30:02;;;;;;;12.90;7.63;;;;;;;-2.89;100.00;101096.63;10355124;28;20064;-74
2023/03/12 01:35:03;;;;;;;12.27;6.83;;;;;;;-2.92;100.00;101085.31;10338568;28;20034;-74
2023/03/12 01:40:04;;;;;;;13.27;7.10;;;;;;;-3.03;100.00;101072.16;10371722;28;20493;-74
2023/03/12 01:45:05;;;;;;;21.57;6.83;;;;;;;-2.91;100.00;101084.34;10311346;28;20053;-73
2023/03/12 01:50:06;;;;;;;11.37;7.67;;;;;;;-3.01;100.00;101067.44;10314162;28;20120;-72
2023/03/12 01:55:14;;;;;;;12.53;7.03;;;;;;;-3.03;100.00;101067.59;10368837;28;20042;-74
2023/03/12 02:00:19;;;;;;;12.57;8.23;;;;;;;-3.14;100.00;101028.34;10353398;28;20379;-74
2023/03/12 02:05:19;;;;;;;14.20;8.73;;;;;;;-2.94;100.00;101061.25;10406529;28;20037;-74
2023/03/12 02:10:20;;;;;;;12.43;7.57;;;;;;;-2.90;100.00;101051.81;10369255;28;20046;-74
2023/03/12 02:15:21;;;;;;;13.53;7.37;;;;;;;-2.89;100.00;101047.31;10326208;28;20038;-74
2023/03/12 02:20:26;;;;;;;17.37;8.30;;;;;;;-2.74;100.00;101051.06;10349580;28;20060;-74
2023/03/12 02:25:54;;;;;;;18.00;7.22;;;;;;;-2.59;100.00;101039.66;10377695;28;20044;-74
2023/03/12 02:30:57;;;;;;;18.40;9.13;;;;;;;-2.49;100.00;101026.88;10377764;28;20057;-74
2023/03/12 02:35:58;;;;;;;14.03;8.47;;;;;;;-2.72;100.00;100965.50;10410096;28;20029;-73
2023/03/12 02:41:25;;;;;;;14.00;8.30;;;;;;;-2.77;100.00;100943.59;10366784;28;20084;-73
2023/03/12 02:46:26;;;;;;;14.80;8.00;;;;;;;-2.28;100.00;101005.66;10333260;28;20037;-73
2023/03/12 02:51:26;;;;;;;11.43;7.07;;;;;;;-2.15;100.00;101031.28;10367677;28;20102;-73
2023/03/12 02:56:27;;;;;;;17.90;9.63;;;;;;;-2.14;100.00;101031.13;10370175;28;20038;-73
2023/03/12 03:01:28;;;;;;;19.87;8.93;;;;;;;-2.17;100.00;101009.03;10366841;28;20041;-72
2023/03/12 03:06:29;;;;;;;16.83;9.60;;;;;;;-2.18;100.00;100994.72;10391739;28;20048;-73
2023/03/12 03:11:29;;;;;;;18.47;8.70;;;;;;;-2.17;100.00;100982.06;10375899;28;20045;-72
2023/03/12 03:16:29;;;;;;;14.93;8.50;;;;;;;-2.03;100.00;100998.44;10374553;28;20041;-73
2023/03/12 03:21:30;;;;;;;14.53;8.57;;;;;;;-2.01;100.00;100997.41;10357421;28;20125;-72
2023/03/12 03:26:31;;;;;;;16.35;9.73;;;;;;;-2.03;100.00;100984.09;10356304;28;20091;-72
2023/03/12 03:31:31;;;;;;;16.67;9.10;;;;;;;-1.97;100.00;100978.03;10407701;28;20037;-73
2023/03/12 03:36:32;;;;;;;19.43;9.87;;;;;;;-1.91;100.00;100973.81;10406998;28;20029;-73
2023/03/12 03:41:32;;;;;;;14.83;9.90;;;;;;;-1.85;100.00;100965.03;10390735;28;20057;-72
2023/03/12 03:46:34;;;;;;;15.88;9.35;;;;;;;-1.81;100.00;100971.78;10389709;28;20123;-73
2023/03/12 03:51:34;;;;;;;15.07;8.73;;;;;;;-1.76;100.00;100976.66;10421235;28;20363;-73
2023/03/12 03:56:35;;;;;;;15.50;9.30;;;;;;;-1.80;100.00;100967.22;10397831;28;20036;-74
2023/03/12 04:01:35;;;;;;;14.47;8.87;;;;;;;-1.81;100.00;100954.75;10357624;28;20038;-73
2023/03/12 04:06:36;;;;;;;18.30;10.07;;;;;;;-1.76;100.00;100958.59;10327938;28;20046;-70
2023/03/12 04:11:37;;;;;;;18.10;9.70;;;;;;;-1.73;100.00;100942.06;10362714;28;20034;-73
2023/03/12 04:16:37;;;;;;;17.70;8.53;;;;;;;-1.75;100.00;100921.66;10348563;28;20349;-72
2023/03/12 04:21:38;;;;;;;14.50;8.57;;;;;;;-1.70;100.00;100919.28;10316236;28;20081;-73
2023/03/12 04:26:38;;;;;;;12.80;8.67;;;;;;;-1.54;100.00;100940.84;10366407;28;20093;-72
2023/03/12 04:31:39;;;;;;;15.87;9.10;;;;;;;-1.53;100.00;100920.06;10361838;28;20038;-73
2023/03/12 04:36:39;;;;;;;17.27;9.13;;;;;;;-1.51;100.00;100908.09;10365205;28;20038;-73
2023/03/12 04:41:40;;;;;;;14.50;8.97;;;;;;;-1.47;100.00;100913.97;10332462;28;20029;-73
2023/03/12 04:46:41;;;;;;;14.60;9.77;;;;;;;-1.46;100.00;100900.31;10400429;28;20056;-73
2023/03/12 04:51:41;;;;;;;16.33;9.23;;;;;;;-1.49;100.00;100889.88;10389227;28;20038;-73
2023/03/12 04:56:42;;;;;;;11.45;8.63;;;;;;;-1.42;100.00;100901.63;10406621;28;20551;-73
2023/03/12 05:01:42;;;;;;;11.40;9.13;;;;;;;-1.35;100.00;100900.94;10387358;28;20105;-73
2023/03/12 05:06:43;;;;;;;14.77;8.93;;;;;;;-1.28;100.00;100896.50;10390070;28;20109;-73
2023/03/12 05:11:43;;;;;;;13.13;8.93;;;;;;;-1.37;100.00;100863.28;10378948;28;20037;-73
2023/03/12 05:16:44;;;;;;;13.07;8.93;;;;;;;-1.29;100.00;100863.25;10394987;28;20045;-73
2023/03/12 05:21:45;;;;;;;14.97;8.60;;;;;;;-1.25;100.00;100858.34;10406298;28;20044;-70
2023/03/12 05:26:46;;;;;;;13.73;6.77;;;;;;;-1.26;100.00;100840.44;10427321;28;20053;-72
2023/03/12 05:31:46;;;;;;;11.83;7.70;;;;;;;-1.24;100.00;100830.31;10365069;28;20042;-73
2023/03/12 05:36:47;;;;;;;9.23;7.20;;;;;;;-1.22;100.00;100833.66;10353079;28;20657;-73
2023/03/12 05:41:47;;;;;;;9.53;7.03;;;;;;;-1.28;100.00;100805.53;10336950;28;20041;-74
2023/03/12 05:46:48;;;;;;;12.68;7.88;;;;;;;-1.15;100.00;100809.50;10359964;28;20535;-73
2023/03/12 05:51:48;;;;;;;14.70;7.70;;;;;;;-1.23;100.00;100786.06;10393222;28;20131;-73
2023/03/12 05:56:49;;;;;;;13.33;7.43;;;;;;;-1.16;100.00;100797.81;10378850;28;20053;-71
2023/03/12 06:01:49;;;;;;;13.30;6.93;;;;;;;-1.16;100.00;100797.81;10356963;28;20109;-73
2023/03/12 06:06:50;;;;;;;13.10;7.07;;;;;;;-1.16;100.00;100791.59;10408863;28;20049;-73
2023/03/12 06:11:50;;;;;;;12.27;7.90;;;;;;;-0.94;100.00;100795.31;10376404;28;20057;-73
2023/03/12 06:16:51;;;;;;;14.13;7.63;;;;;;;-0.86;100.00;100773.63;10392221;28;20029;-74
2023/03/12 06:21:51;;;;;;;10.07;7.77;;;;;;;-0.69;100.00;100777.88;10375803;28;20414;-73
2023/03/12 06:26:52;;;;;;;12.32;8.48;;;;;;;-0.63;100.00;100773.59;10386872;28;20045;-73
2023/03/12 06:31:52;;;;;;;11.90;7.83;;;;;;;-0.64;100.00;100767.34;10358759;28;20037;-73
2023/03/12 06:36:53;;;;;;;11.97;8.03;;;;;;;-0.54;100.00;100774.34;10392139;28;20572;-74
2023/03/12 06:41:54;;;;;;;14.60;8.00;;;;;;;-0.54;100.00;100764.38;10372031;28;20052;-73
2023/03/12 06:46:54;;;;;;;10.57;6.95;;;;;;;-0.54;100.00;100758.13;10334052;28;20065;-74
2023/03/12 06:51:55;;;;;;;13.57;7.60;;;;;;;-0.43;100.00;100782.03;10345720;28;20519;-73
2023/03/12 06:56:58;;;;;;;8.68;5.82;;;;;;;-0.38;100.00;100782.31;10408987;28;20034;-73
2023/03/12 07:01:58;;;;;;;11.33;7.57;;;;;;;-0.33;100.00;100782.59;10348550;28;20510;-74
2023/03/12 07:06:59;;;;;;;11.40;7.43;;;;;;;-0.28;100.00;100780.19;10333508;28;20042;-74
2023/03/12 07:11:59;;;;;;;13.27;8.38;;;;;;;-0.18;100.00;100790.72;10324846;28;20034;-74
2023/03/12 07:17:01;;;;;;;8.65;6.60;;;;;;;-0.15;100.00;100797.63;10324803;28;20035;-74
2023/03/12 07:22:01;;;;;;;14.30;7.97;;;;;;;-0.05;100.00;100796.31;10326705;28;20039;-73
2023/03/12 07:27:02;;;;;;;9.93;6.82;;;;;;;0.02;100.00;100793.69;10336179;28;20038;-69
2023/03/12 07:32:03;;;;;;;12.23;6.67;;;;;;;0.23;100.00;100789.41;10364699;28;20102;-73
2023/03/12 07:37:04;;;;;;;9.05;7.10;;;;;;;0.38;100.00;100776.69;10387393;28;20098;-73
2023/03/12 07:42:04;;;;;;;11.50;6.15;;;;;;;0.49;100.00;100773.47;10373808;28;20038;-74
2023/03/12 07:47:05;;;;;;;11.60;6.10;;;;;;;0.68;100.00;100776.59;10408062;28;20096;-73
2023/03/12 07:52:08;;;;;;;11.35;7.10;;;;;;;0.71;100.00;100762.69;10437758;28;20064;-73
2023/03/12 07:57:09;;;;;;;11.45;6.07;;;;;;;0.82;100.00;100755.91;10432264;28;20041;-72
2023/03/12 08:02:09;;;;;;;11.82;7.20;;;;;;;0.89;100.00;100746.81;10391611;28;20034;-73
2023/03/12 08:07:10;;;;;;;10.18;6.65;;;;;;;1.07;100.00;100757.19;10356661;28;20509;-73
2023/03/12 08:12:11;;;;;;;12.25;6.80;;;;;;;1.05;100.00;100753.81;10373163;28;20433;-72
2023/03/12 08:17:11;;;;;;;12.52;7.90;;;;;;;1.14;100.00;100746.41;10359890;28;20045;-71
2023/03/12 08:22:12;;;;;;;14.45;8.27;;;;;;;0.99;100.00;100732.91;10447119;28;20048;-72
2023/03/12 08:27:12;;;;;;;15.27;8.55;;;;;;;0.93;100.00;100734.56;10449353;28;20449;-71
2023/03/12 08:32:13;;;;;;;12.38;9.00;;;;;;;0.81;100.00;100727.97;10404395;28;20088;-72
2023/03/12 08:37:13;;;;;;;14.27;9.05;;;;;;;0.85;100.00;100748.25;10370070;28;20441;-72
2023/03/12 08:42:14;;;;;;;15.02;9.45;;;;;;;0.86;100.00;100733.63;10351256;28;20041;-73
2023/03/12 08:47:14;;;;;;;22.02;8.57;;;;;;;0.85;100.00;100731.97;10356115;28;20100;-74
2023/03/12 08:52:15;;;;;;;12.98;9.05;;;;;;;0.66;100.00;100702.78;10357340;28;20046;-73
2023/03/12 08:57:16;;;;;;;19.83;9.33;;;;;;;0.75;100.00;100702.47;10372086;28;20038;-74
2023/03/12 09:02:16;;;;;;;16.42;10.38;;;;;;;0.74;100.00;100686.41;10343122;28;20038;-73
2023/03/12 09:07:17;;;;;;;17.90;10.15;;;;;;;0.82;100.00;100670.00;10370339;28;20181;-73
2023/03/12 09:12:17;;;;;;;11.73;9.00;;;;;;;1.05;100.00;100671.66;10354925;28;20072;-74
2023/03/12 09:17:18;;;;;;;18.35;10.20;;;;;;;0.96;100.00;100639.28;10338801;28;20034;-75
2023/03/12 09:22:18;;;;;;;12.35;9.57;;;;;;;1.01;100.00;100600.72;10313828;28;20039;-72
2023/03/12 09:27:19;;;;;;;13.80;9.95;;;;;;;1.15;100.00;100620.63;10313585;28;20065;-76
2023/03/12 09:32:19;;;;;;;12.63;10.18;;;;;;;1.18;100.00;100617.53;10320278;28;20094;-74
2023/03/12 09:37:20;;;;;;;13.52;9.75;;;;;;;1.08;100.00;100620.59;10321658;28;20057;-74
2023/03/12 09:42:24;;;;;;;17.30;10.13;;;;;;;1.10;100.00;100625.84;10337407;28;20034;-73
2023/03/12 09:47:49;;;;;;;16.90;11.02;;;;;;;1.03;100.00;100624.94;10321754;28;20100;-73
2023/03/12 09:53:10;;;;;;;14.30;10.35;;;;;;;1.00;100.00;100620.75;10368721;28;20034;-73
2023/03/12 09:58:37;;;;;;;15.90;11.00;;;;;;;0.91;100.00;100611.06;10355786;28;20073;-73
2023/03/12 10:03:40;;;;;;;18.02;12.85;;;;;;;0.88;100.00;100623.16;10353856;28;20065;-72
2023/03/12 10:09:09;;;;;;;21.63;13.32;;;;;;;0.89;100.00;100624.84;10367747;28;20111;-72
2023/03/12 10:14:19;;;;;;;21.48;14.13;;;;;;;0.89;100.00;100614.00;10391030;28;20523;-72
2023/03/12 10:19:34;;;;;;;23.55;15.40;;;;;;;0.88;100.00;100617.75;10411384;28;20033;-73
2023/03/12 10:24:58;;;;;;;22.73;15.77;;;;;;;0.78;100.00;100593.69;10425389;28;20054;-74
2023/03/12 10:29:59;;;;;;;21.42;15.88;;;;;;;0.78;100.00;100573.88;10371774;28;20049;-73
2023/03/12 10:35:03;;;;;;;23.33;15.15;;;;;;;0.91;100.00;100581.25;10358265;28;20073;-72
2023/03/12 10:40:04;;;;;;;22.08;15.75;;;;;;;1.00;100.00;100567.38;10369779;28;20065;-72
2023/03/12 10:45:07;;;;;;;23.63;15.30;;;;;;;1.19;100.00;100575.81;10329724;28;20042;-72
2023/03/12 10:50:19;;;;;;;24.77;16.77;;;;;;;1.13;100.00;100571.19;10368333;28;20041;-72
2023/03/12 10:55:21;;;;;;;24.50;17.45;;;;;;;1.14;100.00;100570.16;10372842;28;20128;-72
2023/03/12 11:00:23;;;;;;;27.00;17.98;;;;;;;1.29;100.00;100554.59;10389477;28;20051;-72
2023/03/12 11:05:26;;;;;;;29.40;18.25;;;;;;;1.26;100.00;100524.31;10387038;28;20104;-72
2023/03/12 11:10:43;;;;;;;26.05;18.90;;;;;;;1.36;100.00;100536.47;10314317;28;20133;-73
2023/03/12 11:15:43;;;;;;;;;;;;;;;1.51;100.00;100528.19;10387402;28;20054;-73
2023/03/12 11:20:44;;;;;;;29.55;18.27;;;;;;;1.52;100.00;100523.59;10367118;28;19933;-73
2023/03/12 11:25:53;;;;;;;24.88;17.85;;;;;;;1.45;100.00;100510.03;10364158;28;20505;-73
2023/03/12 11:30:53;;;;;;;25.02;17.45;;;;;;;1.39;100.00;100505.41;10358206;28;20049;-74
2023/03/12 11:36:14;;;;;;;34.25;19.25;;;;;;;1.56;100.00;100511.31;10351896;28;20398;-76
2023/03/12 11:41:27;;;;;;;28.83;19.13;;;;;;;1.67;100.00;100518.00;10387081;28;20038;-74
2023/03/12 11:46:42;;;;;;;26.17;19.25;;;;;;;1.70;100.00;100507.59;10335314;28;20113;-75
2023/03/12 11:51:43;;;;;;;25.92;18.83;;;;;;;1.72;100.00;100500.06;10328490;28;20046;-74
2023/03/12 11:56:48;;;;;;;29.58;18.60;;;;;;;1.67;100.00;100470.00;10350624;28;20114;-75
2023/03/12 12:02:07;;;;;;;30.35;20.40;;;;;;;1.96;100.00;100467.94;10365427;28;20587;-75
2023/03/12 12:07:23;;;;;;;27.38;18.20;;;;;;;2.01;100.00;100444.56;10383834;28;20049;-75
2023/03/12 12:12:48;;;;;;;21.13;14.37;;;;;;;2.12;100.00;100451.25;10384633;28;20394;-74
2023/03/12 12:18:19;;;;;;;28.90;19.98;;;;;;;2.26;100.00;100441.22;10410473;28;20041;-75
2023/03/12 12:23:22;;;;;;;29.90;19.25;;;;;;;2.34;100.00;100443.72;10415895;28;20048;-75
2023/03/12 12:28:23;;;;;;;29.38;19.90;;;;;;;2.40;100.00;100421.13;10401687;28;20478;-75
2023/03/12 12:33:26;;;;;;;31.17;20.90;;;;;;;2.36;100.00;100419.88;10388424;28;20111;-75
2023/03/12 12:38:41;;;;;;;36.05;22.73;;;;;;;2.28;100.00;100413.84;10391650;28;20054;-74
2023/03/12 12:43:59;;;;;;;32.83;20.95;;;;;;;2.46;100.00;100414.03;10348763;28;20069;-75
2023/03/12 12:49:09;;;;;;;30.70;20.15;;;;;;;2.52;100.00;100413.19;10388305;28;20036;-76
2023/03/12 12:54:29;;;;;;;38.22;22.23;;;;;;;2.76;100.00;100413.53;10383618;28;20046;-75
2023/03/12 13:00:22;;;;;;;34.22;21.05;;;;;;;2.88;100.00;100405.53;10387802;28;20050;-75
2023/03/12 13:05:27;;;;;;;35.40;22.92;;;;;;;2.65;100.00;100329.91;10358959;28;20516;-75
2023/03/12 13:10:34;;;;;;;34.07;23.57;;;;;;;3.27;100.00;100392.81;10356564;28;20045;-74
2023/03/12 13:15:42;;;;;;;35.35;22.25;;;;;;;3.46;100.00;100401.91;10372140;28;20053;-74
2023/03/12 13:20:51;;;;;;;35.60;22.40;;;;;;;3.68;100.00;100410.53;10390561;28;20052;-73
2023/03/12 13:26:15;;;;;;;37.75;22.70;;;;;;;3.72;100.00;100401.72;10389574;28;20046;-73
2023/03/12 13:31:28;;;;;;;38.72;23.27;;;;;;;3.90;100.00;100409.09;10360202;28;20038;-73
2023/03/12 13:36:29;;;;;;;34.92;23.23;;;;;;;3.94;100.00;100410.31;10388303;28;20042;-74
2023/03/12 13:41:40;;;;;;;36.78;23.90;;;;;;;4.03;100.00;100405.44;10335642;28;20045;-74
2023/03/12 13:46:41;;;;;;;40.78;25.02;;;;;;;4.35;100.00;100403.47;10393003;28;20038;-74
2023/03/12 13:51:52;;;;;;;43.83;24.30;;;;;;;4.63;100.00;100413.88;10362244;28;20401;-74
2023/03/12 13:57:04;;;;;;;39.60;24.85;;;;;;;4.75;100.00;100404.94;10410782;28;20504;-73
2023/03/12 14:02:11;;;;;;;34.60;22.60;;;;;;;4.99;100.00;100423.09;10310788;28;20467;-74
2023/03/12 14:07:17;;;;;;;;;;;;;;;5.21;100.00;100415.28;10352804;28;20049;-74
2023/03/12 14:12:21;;;;;;;;;;;;;;;5.50;100.00;100417.41;10369389;28;19984;-75
2023/03/12 14:17:26;;;;;;;26.73;16.65;;;;;;;5.68;100.00;100411.88;10335787;28;19944;-74
2023/03/12 14:22:31;;;;;;;27.98;17.23;;;;;;;5.98;100.00;100405.56;10369556;28;20049;-73
2023/03/12 14:27:32;;;;;;;25.33;16.38;;;;;;;6.18;100.00;100391.53;10349979;28;20045;-74
2023/03/12 14:32:32;;;;;;;26.90;16.33;;;;;;;6.02;100.00;100347.47;10390994;28;20051;-74
2023/03/12 14:37:39;;;;;;;26.25;16.23;;;;;;;6.29;100.00;100398.09;10408292;28;20038;-75
2023/03/12 14:42:39;;;;;;;26.17;14.68;;;;;;;6.54;100.00;100422.47;10375598;28;20044;-75
2023/03/12 14:47:44;;;;;;;23.73;14.52;;;;;;;6.32;100.00;100376.56;10390415;28;20049;-75
2023/03/12 14:52:45;;;;;;;30.55;14.82;;;;;;;6.85;100.00;100445.88;10353594;28;20044;-75
2023/03/12 14:57:45;;;;;;;31.88;14.55;;;;;;;7.04;100.00;100446.53;10371667;28;20061;-75
2023/03/12 15:02:46;;;;;;;36.10;16.70;;;;;;;7.15;100.00;100442.09;10384102;28;20042;-75
2023/03/12 15:07:46;;;;;;;43.33;15.43;;;;;;;6.99;100.00;100414.44;10367970;28;20135;-76
2023/03/12 15:12:47;;;;;;;39.88;15.45;;;;;;;7.19;100.00;100446.88;10368709;28;20379;-74
2023/03/12 15:17:48;;;;;;;43.40;16.25;;;;;;;7.16;100.00;100447.34;10368093;28;20061;-74
2023/03/12 15:22:48;;;;;;;45.45;17.63;;;;;;;6.78;100.00;100384.97;10349841;28;20140;-75
2023/03/12 15:28:02;;;;;;;48.50;17.65;;;;;;;7.19;100.00;100452.34;10365074;28;20048;-76
2023/03/12 15:33:21;;;;;;;48.85;17.63;;;;;;;7.32;100.00;100456.72;10343184;28;20294;-77
2023/03/12 15:38:22;;;;;;;70.70;18.60;;;;;;;7.29;100.00;100440.75;10349663;28;20038;-75
2023/03/12 15:43:23;;;;;;;59.75;15.43;;;;;;;7.31;100.00;100446.00;10322296;28;20145;-75
2023/03/12 15:48:35;;;;;;;40.28;15.43;;;;;;;7.26;100.00;100444.81;10359190;28;20037;-76
2023/03/12 15:53:35;;;;;;;55.53;14.63;;;;;;;7.30;100.00;100455.28;10389756;28;20044;-75
2023/03/12 15:58:37;;;;;;;48.70;12.85;;;;;;;7.20;100.00;100432.09;10358645;28;20037;-75
2023/03/12 16:03:39;;;;;;;39.13;13.75;;;;;;;7.27;100.00;100432.78;10355616;28;20041;-75
2023/03/12 16:08:43;;;;;;;34.13;11.13;;;;;;;7.21;100.00;100433.78;10383029;28;20048;-75
2023/03/12 16:13:44;;;;;;;39.30;13.02;;;;;;;7.28;100.00;100444.59;10327905;28;20065;-75
2023/03/12 16:18:44;;;;;;;40.20;12.93;;;;;;;7.41;100.00;100438.81;10358568;28;20041;-76
2023/03/12 16:23:45;;;;;;;39.33;12.40;;;;;;;7.40;100.00;100404.28;10376195;28;20034;-75
2023/03/12 16:28:45;;;;;;;37.92;11.02;;;;;;;7.53;100.00;100424.25;10348217;28;20057;-76
2023/03/12 16:33:46;;;;;;;43.45;12.68;;;;;;;7.38;100.00;100417.41;10364096;28;20087;-75
2023/03/12 16:38:46;;;;;;;42.72;11.40;;;;;;;7.41;100.00;100419.63;10366844;28;20038;-75
2023/03/12 16:43:48;;;;;;;42.40;12.32;;;;;;;7.32;100.00;100401.94;10382360;28;20045;-76
2023/03/12 16:48:51;;;;;;;39.78;10.60;;;;;;;7.24;100.00;100405.91;10351345;28;20045;-75
2023/03/12 16:53:51;;;;;;;59.50;12.13;;;;;;;7.23;100.00;100426.13;10338130;28;20030;-76
2023/03/12 16:58:53;;;;;;;48.83;12.68;;;;;;;7.19;100.00;100424.97;10381189;28;20042;-76
2023/03/12 17:03:53;;;;;;;50.55;12.07;;;;;;;7.19;100.00;100426.84;10352768;28;20034;-76
2023/03/12 17:08:54;;;;;;;44.30;10.50;;;;;;;7.12;100.00;100417.97;10388699;28;20046;-75
2023/03/12 17:13:56;;;;;;;36.90;10.20;;;;;;;7.08;100.00;100407.50;10390906;28;20053;-75
2023/03/12 17:18:57;;;;;;;45.35;12.15;;;;;;;7.04;100.00;100406.31;10388456;28;21434;-76
2023/03/12 17:23:57;;;;;;;45.92;9.88;;;;;;;7.00;100.00;100410.59;10372755;28;20466;-75
2023/03/12 17:28:58;;;;;;;48.78;11.68;;;;;;;6.92;100.00;100413.72;10389708;28;20737;-76
2023/03/12 17:34:02;;;;;;;48.75;10.85;;;;;;;6.92;100.00;100413.72;10394973;28;20480;-76
2023/03/12 17:39:02;;;;;;;52.85;10.35;;;;;;;6.87;100.00;100421.84;10397189;28;20037;-75
2023/03/12 17:44:03;;;;;;;51.13;10.13;;;;;;;6.78;100.00;100415.06;10370704;28;20057;-75
2023/03/12 17:49:04;;;;;;;47.10;9.88;;;;;;;6.77;100.00;100418.88;10375598;28;20038;-76
2023/03/12 17:54:04;;;;;;;49.50;10.00;;;;;;;6.75;100.00;100418.28;10372552;28;20038;-76
2023/03/12 17:59:05;;;;;;;35.55;8.35;;;;;;;6.50;100.00;100385.72;10360835;28;20036;-76
2023/03/12 18:04:05;;;;;;;50.85;10.45;;;;;;;6.56;100.00;100421.16;10400589;28;20052;-76
2023/03/12 18:09:05;;;;;;;39.03;9.43;;;;;;;6.49;100.00;100436.00;10433020;28;20500;-77
2023/03/12 18:14:06;;;;;;;45.13;9.82;;;;;;;6.52;100.00;100447.31;10411466;28;20570;-76
2023/03/12 18:19:06;;;;;;;58.15;11.15;;;;;;;6.43;100.00;100456.97;10404746;28;20033;-72
2023/03/12 18:24:07;;;;;;;43.10;8.25;;;;;;;6.54;100.00;100464.31;10429704;28;20049;-76
2023/03/12 18:29:07;;;;;;;45.03;9.52;;;;;;;6.61;100.00;100462.28;10430506;28;20037;-76
2023/03/12 18:34:08;;;;;;;41.92;8.90;;;;;;;6.63;100.00;100457.41;10409548;28;20179;-76
2023/03/12 18:39:09;;;;;;;47.75;8.27;;;;;;;6.69;100.00;100441.13;10448712;28;20037;-75
2023/03/12 18:44:09;;;;;;;37.00;8.93;;;;;;;6.75;100.00;100440.16;10398110;28;20074;-76
2023/03/12 18:49:11;;;;;;;36.25;8.65;;;;;;;6.62;100.00;100422.09;10382038;28;20049;-76
2023/03/12 18:54:11;;;;;;;41.97;7.75;;;;;;;6.57;100.00;100392.72;10386129;28;20044;-76
2023/03/12 18:59:13;;;;;;;41.65;7.47;;;;;;;6.64;100.00;100407.13;10389278;28;20036;-76
2023/03/12 19:04:15;;;;;;;34.20;7.95;;;;;;;6.56;100.00;100382.88;10416318;28;20036;-76
2023/03/12 19:09:16;;;;;;;45.88;8.45;;;;;;;6.63;100.00;100401.88;10428976;28;20377;-75
2023/03/12 19:14:16;;;;;;;42.72;8.25;;;;;;;6.61;100.00;100418.53;10409271;28;20041;-75
2023/03/12 19:19:17;;;;;;;43.28;8.20;;;;;;;6.60;100.00;100427.81;10414349;28;20056;-76
2023/03/12 19:24:17;;;;;;;39.25;9.27;;;;;;;6.57;100.00;100428.28;10431988;28;20493;-76
2023/03/12 19:29:18;;;;;;;33.13;7.80;;;;;;;6.40;100.00;100406.28;10414063;28;20044;-76
2023/03/12 19:34:18;;;;;;;34.83;9.65;;;;;;;6.49;100.00;100404.06;10444132;28;20044;-75
2023/03/12 19:39:19;;;;;;;37.47;9.45;;;;;;;6.53;100.00;100397.03;10414322;28;20539;-76
2023/03/12 19:44:19;;;;;;;36.50;8.70;;;;;;;6.39;100.00;100401.09;10430362;28;20032;-76
2023/03/12 19:49:20;;;;;;;41.03;8.77;;;;;;;6.21;100.00;100375.50;10429465;28;20049;-76
2023/03/12 19:54:21;;;;;;;33.85;8.48;;;;;;;6.21;100.00;100374.69;10417529;28;20093;-77
2023/03/12 19:59:21;;;;;;;46.25;9.63;;;;;;;6.19;100.00;100374.91;10396385;28;20032;-75
2023/03/12 20:04:22;;;;;;;33.03;7.55;;;;;;;6.28;100.00;100375.38;10447126;28;20044;-75
2023/03/12 20:09:22;;;;;;;32.65;6.95;;;;;;;6.32;100.00;100351.16;10414945;28;20041;-75
2023/03/12 20:14:23;;;;;;;47.00;9.57;;;;;;;6.39;100.00;100343.66;10446043;28;20100;-76
2023/03/12 20:19:24;;;;;;;41.03;8.57;;;;;;;6.51;100.00;100336.28;10428540;28;20464;-75
2023/03/12 20:24:24;;;;;;;46.63;9.52;;;;;;;6.58;100.00;100336.97;10429744;28;20105;-77
2023/03/12 20:29:25;;;;;;;55.00;11.00;;;;;;;6.52;100.00;100321.50;10445564;28;20052;-75
2023/03/12 20:34:25;;;;;;;43.88;9.38;;;;;;;6.74;100.00;100348.22;10416619;28;20033;-76
2023/03/12 20:39:26;;;;;;;47.10;9.75;;;;;;;6.78;100.00;100335.72;10450117;28;20501;-75
2023/03/12 20:44:26;;;;;;;37.58;7.70;;;;;;;6.59;100.00;100294.84;10403359;28;20044;-75
2023/03/12 20:49:27;;;;;;;35.92;9.43;;;;;;;6.97;100.00;100337.22;10453161;28;20087;-76
2023/03/12 20:54:27;;;;;;;31.20;8.13;;;;;;;7.02;100.00;100325.53;10419483;28;20040;-70
2023/03/12 20:59:28;;;;;;;38.40;8.98;;;;;;;7.17;100.00;100331.31;10422657;28;20040;-76
2023/03/12 21:04:28;;;;;;;27.40;8.88;;;;;;;7.22;100.00;100323.16;10436726;28;20040;-75
2023/03/12 21:09:29;;;;;;;28.13;7.03;;;;;;;7.22;100.00;100308.66;10436073;28;20037;-75
2023/03/12 21:14:29;;;;;;;41.63;8.98;;;;;;;7.37;100.00;100322.63;10418020;28;20079;-76
2023/03/12 21:19:30;;;;;;;29.10;6.95;;;;;;;7.42;100.00;100324.59;10434337;28;20577;-76
2023/03/12 21:24:31;;;;;;;24.98;6.68;;;;;;;7.48;100.00;100309.91;10417679;28;20056;-75
2023/03/12 21:29:32;;;;;;;26.65;7.38;;;;;;;7.50;100.00;100315.16;10452518;28;20101;-75
2023/03/12 21:34:32;;;;;;;23.98;6.60;;;;;;;7.54;100.00;100310.84;10435033;28;20041;-74
2023/03/12 21:39:33;;;;;;;23.95;6.30;;;;;;;7.52;100.00;100299.31;10436872;28;20037;-75
2023/03/12 21:44:35;;;;;;;17.27;5.38;;;;;;;7.54;100.00;100294.41;10416811;28;20044;-75
2023/03/12 21:49:35;;;;;;;26.05;7.82;;;;;;;7.39;100.00;100254.72;10447844;28;20033;-75
2023/03/12 21:54:36;;;;;;;32.50;6.38;;;;;;;7.45;100.00;100270.16;10433311;28;20041;-68
2023/03/12 21:59:36;;;;;;;24.67;5.50;;;;;;;7.24;100.00;100216.97;10396129;28;20045;-75
2023/03/12 22:04:37;;;;;;;24.85;6.63;;;;;;;7.35;100.00;100250.84;10372634;28;20064;-74
2023/03/12 22:09:37;;;;;;;25.40;6.45;;;;;;;7.35;100.00;100253.56;10390190;28;20599;-74
2023/03/12 22:14:38;;;;;;;19.23;4.97;;;;;;;7.29;100.00;100221.69;10392190;28;20050;-76
2023/03/12 22:19:38;;;;;;;14.77;4.82;;;;;;;7.52;100.00;100241.78;10390725;28;20149;-75
2023/03/12 22:24:39;;;;;;;27.17;6.68;;;;;;;7.52;100.00;100225.34;10375554;28;20033;-75
2023/03/12 22:29:39;;;;;;;17.88;5.85;;;;;;;7.60;100.00;100222.19;10390688;28;20067;-75
2023/03/12 22:34:40;;;;;;;25.95;5.47;;;;;;;7.65;100.00;100214.06;10410781;28;20045;-75
2023/03/12 22:39:42;;;;;;;15.70;5.72;;;;;;;7.68;100.00;100208.88;10411782;28;20403;-74
2023/03/12 22:44:42;;;;;;;25.60;6.47;;;;;;;7.78;100.00;100200.00;10408116;28;20120;-75
2023/03/12 22:49:42;;;;;;;30.83;6.63;;;;;;;7.86;100.00;100198.75;10409327;28;20049;-76